Cedar Rapids, IA (52401)

2:42 AM CDT on August 29, 2015 (GMT -0500)
SW Cedar Rapids | | Change Station
CLOSE
Current Station
Personal Weather Station
Location: Cedar Rapids, IA
Elevation: 745 ft
Nearby Weather Stations

Elev 745 ft 41.97 °N, 91.68 °W | Updated 14 seconds ago

Overcast
Overcast
65.5 °F
Feels Like 65.5 °F
N
1.1
Wind Variable Wind from South
Gusts 2.2 mph

Today
High -- | Low -- °F
--% Chance of Precip.
Yesterday
High -- | Low -- °F
Precip. -- in
6:28 AM 7:45 PM
Full, 100% visible
Pressure 29.92 in
Visibility 8.0 miles
Clouds Overcast 2500 ft
Dew Point 61 °F
Humidity 86%
Rainfall 0.00 in
Snow Depth Not available.
UV 0 out of 12
Pollen 2.70 out of 12
Air Quality Not available.
Flu Activity Not available.
METAR KCID 290652Z AUTO 16007KT 8SM OVC025 19/19 A2992 RMK AO2 RAE10 SLP130 P0000 T01890189
Pressure 29.92 in
Visibility 8.0 miles
Clouds Overcast 2500 ft
Dew Point 61 °F
Humidity 86%
Rainfall 0.00 in
Snow Depth Not available.
UV 0 out of 12
Pollen 2.70 out of 12
Air Quality Not available.
Flu Activity Not available.
METAR KCID 290652Z AUTO 16007KT 8SM OVC025 19/19 A2992 RMK AO2 RAE10 SLP130 P0000 T01890189

10-Day Weather Forecast

×

Almanac

Astronomy

Aug. 29, 2015 Rise Set
Actual Time
Civil Twilight
Nautical Twilight
Astronomical Twilight
Moon
Length of Visible Light
Length of Day
Tomorrow will be .
, % of the Moon is Illuminated

Today's Extremes

State Highs State Lows

Community

WunderPhotos

Upload Photos

1,850,634 photos uploaded!

WunderBlogs® & News

Nearby

Air Quality

  Air Quality AQ Index Pollutant
Not available.

Snow Depth

Station Depth Elevation

Earthquake Activity

City Distance Mag. Time & Date
Minimum magnitude displayed is 2.5.

Coastal Water Temperatures

Place Temperature

Stations

Nearby Weather Stations

Station Location Temp. Windchill Dew Point Humidity Wind Precip. Elev Updated Type